Latest Weather Observations for Hartz Mountains

IDT60801

Issued at 9:31 am EDT Friday 6 March 2015 (issued every 30 minutes, with the page automatically refreshed every 10 minutes)

About weather observations | Map of weather stations | Latest weather observations for TAS | Other Formats
Station Details ID: 094191 Name: HARTZ MOUNTAIN (KEOGHS PIMPLE) Lat: -43.20 Lon: 146.77 Height: 831.0 m
Data from the previous 72 hours. | See also: Recent months at Hartz Mountains
Date/Time
EDT
Temp
°C
App
Temp
°C
Dew
Point
Rel
Hum
%
Delta-T
°C
Wind Press
QNH
hPa
Press
MSL
hPa
Rain
since 9 am
mm
Dir
 
Spd
km/h
Gust
km/h
Spd
kts
Gust
kts
06/09:30am 2.8 -7.0 2.5 98 0.1 WSW 43 69 23 37 - - 0.0
06/09:14am 2.5 -9.0 2.1 97 0.2 WSW 52 70 28 38 - - 0.0
06/09:00am 2.5 -9.8 1.8 95 0.3 WSW 56 72 30 39 - - 11.0
06/08:30am 3.1 -9.5 1.6 90 0.6 WSW 57 76 31 41 - - 11.0
06/08:00am 3.0 -11.0 2.0 93 0.4 WSW 65 87 35 47 - - 11.0
06/07:30am 3.0 -9.5 2.3 95 0.3 W 57 76 31 41 - - 11.0
06/07:02am 3.0 -8.4 2.6 97 0.2 WSW 52 70 28 38 - - 11.0
06/07:00am 3.0 -8.8 2.6 97 0.2 WSW 54 70 29 38 - - 11.0
06/06:31am 3.2 -7.4 2.9 98 0.1 WSW 48 69 26 37 - - 10.8
06/06:30am 3.2 -7.1 2.9 98 0.1 WSW 46 63 25 34 - - 10.8
06/06:00am 3.4 -8.0 3.1 98 0.1 WSW 52 74 28 40 - - 10.8
06/05:30am 3.8 -7.1 3.7 99 0.0 WSW 50 72 27 39 - - 10.8
06/05:04am 4.3 -5.1 4.2 99 0.0 WSW 43 67 23 36 - - 10.8
06/05:00am 4.3 -5.7 4.2 99 0.0 SW 46 76 25 41 - - 10.8
06/04:30am 4.8 -6.6 4.7 99 0.0 WSW 54 76 29 41 - - 10.8
06/04:00am 5.3 -7.0 5.0 98 0.1 WSW 59 93 32 50 - - 10.6
06/03:48am 5.7 -6.2 5.4 98 0.1 WSW 57 89 31 48 - - 10.6
06/03:42am 5.8 -6.4 5.5 98 0.1 WSW 59 87 32 47 - - 10.6
06/03:30am 6.0 -8.1 5.7 98 0.1 WSW 69 95 37 51 - - 10.6
06/03:00am 7.0 -5.3 6.9 99 0.0 WSW 61 87 33 47 - - 10.6
06/02:52am 7.0 -4.4 6.9 99 0.0 WSW 56 93 30 50 - - 10.4
06/02:51am 7.0 -3.6 6.9 99 0.0 WSW 52 93 28 50 - - 10.4
06/02:46am 7.0 -1.9 6.9 99 0.0 WSW 43 93 23 50 - - 10.4
06/02:30am 6.9 -0.1 6.8 99 0.0 W 33 67 18 36 - - 10.4
06/02:00am 6.8 -1.8 6.7 99 0.0 W 41 82 22 44 - - 10.2
06/01:51am 6.7 -2.3 6.6 99 0.0 W 43 82 23 44 - - 10.0
06/01:49am 6.8 -1.8 6.7 99 0.0 W 41 76 22 41 - - 10.0
06/01:30am 6.7 -0.7 6.6 99 0.0 W 35 70 19 38 - - 10.0
06/01:00am 6.5 -1.4 6.4 99 0.0 W 37 74 20 40 - - 9.8
06/12:30am 6.3 -2.0 6.2 99 0.0 W 39 100 21 54 - - 9.0
06/12:00am 6.1 -3.6 6.0 99 0.0 WNW 46 78 25 42 - - 8.2
 
Date/Time
EDT
Temp
°C
App
Temp
°C
Dew
Point
Rel
Hum
%
Delta-T
°C
Wind Press
QNH
hPa
Press
MSL
hPa
Rain
since 9 am
mm
Dir
 
Spd
km/h
Gust
km/h
Spd
kts
Gust
kts
05/11:30pm 5.8 -4.7 5.7 99 0.0 WNW 50 82 27 44 - - 7.6
05/11:06pm 5.6 -4.2 5.5 99 0.0 WNW 46 95 25 51 - - 7.0
05/11:00pm 5.5 -4.3 5.4 99 0.0 WNW 46 76 25 41 - - 6.6
05/10:30pm 5.2 -3.7 5.1 99 0.0 W 41 80 22 43 - - 5.6
05/10:00pm 4.9 -5.0 4.9 100 0.0 WNW 46 80 25 43 - - 4.6
05/09:30pm 4.5 -4.1 4.5 100 0.0 W 39 76 21 41 - - 4.0
05/09:00pm 4.1 -7.5 4.1 100 0.0 WNW 54 96 29 52 - - 3.6
05/08:51pm 4.0 -7.2 4.0 100 0.0 WNW 52 96 28 52 - - 3.4
05/08:30pm 3.7 -6.8 3.7 100 0.0 W 48 72 26 39 - - 3.2
05/08:00pm 3.6 -8.1 3.6 100 0.0 WNW 54 85 29 46 - - 2.8
05/07:30pm 3.3 -8.4 3.2 99 0.0 WNW 54 87 29 47 - - 2.6
05/07:00pm 3.1 -9.0 3.0 99 0.0 WNW 56 95 30 51 - - 2.4
05/06:30pm 3.0 -9.2 2.9 99 0.0 WNW 56 93 30 50 - - 2.4
05/06:00pm 2.8 -9.6 2.7 99 0.0 WNW 57 95 31 51 - - 2.2
05/05:36pm 2.8 -8.7 2.5 98 0.1 WNW 52 100 28 54 - - 2.0
05/05:30pm 2.7 -9.2 2.4 98 0.1 WNW 54 82 29 44 - - 2.0
05/05:00pm 2.8 -6.6 2.4 97 0.2 W 41 78 22 42 - - 2.0
05/04:45pm 2.9 -6.1 2.6 98 0.1 W 39 72 21 39 - - 2.0
05/04:40pm 2.9 -7.0 2.6 98 0.1 W 44 96 24 52 - - 2.0
05/04:37pm 2.7 -8.4 2.4 98 0.1 W 50 100 27 54 - - 2.0
05/04:30pm 2.7 -9.2 2.4 98 0.1 WNW 54 102 29 55 - - 2.0
05/04:26pm 2.8 -7.5 2.5 98 0.1 WNW 46 102 25 55 - - 2.0
05/04:00pm 2.9 -5.3 2.6 98 0.1 WNW 35 59 19 32 - - 2.0
05/03:30pm 2.8 -5.1 2.4 97 0.2 WNW 33 56 18 30 - - 1.8
05/03:00pm 2.9 -6.5 2.3 96 0.3 W 41 67 22 36 - - 1.6
05/02:30pm 2.8 -4.9 2.2 96 0.2 WNW 32 61 17 33 - - 1.6
05/02:00pm 2.4 -5.0 2.1 98 0.1 W 30 54 16 29 - - 1.4
05/01:31pm 2.8 -4.1 2.5 98 0.1 W 28 52 15 28 - - 0.8
05/01:30pm 2.9 -4.0 2.6 98 0.1 W 28 52 15 28 - - 0.8
05/01:24pm 2.5 -6.6 2.1 97 0.2 W 39 72 21 39 - - 0.8
05/01:14pm 2.5 -5.9 1.8 95 0.3 WSW 35 59 19 32 - - 0.8
05/01:09pm 2.6 -4.8 1.7 94 0.4 W 30 52 16 28 - - 0.6
05/01:00pm 3.2 -4.5 2.5 95 0.3 WNW 32 54 17 29 - - 0.6
05/12:50pm 3.6 -3.2 3.3 98 0.1 W 28 48 15 26 - - 0.6
05/12:38pm 2.7 -7.0 2.6 99 0.0 W 43 65 23 35 - - 0.6
05/12:30pm 1.0 -9.1 0.4 96 0.2 WSW 43 69 23 37 - - 0.6
05/12:00pm 1.7 -7.6 0.8 94 0.4 WSW 39 63 21 34 - - 0.2
05/11:38am 4.3 -3.8 3.4 94 0.4 WSW 35 54 19 29 - - 0.0
05/11:30am 3.2 -5.8 2.5 95 0.3 WSW 39 54 21 29 - - 0.0
05/11:00am 3.5 -6.4 1.9 89 0.7 WSW 43 63 23 34 - - 0.0
05/10:31am 3.3 -6.8 1.7 89 0.7 WSW 44 63 24 34 - - 0.0
05/10:30am 3.4 -7.1 1.6 88 0.7 WSW 46 63 25 34 - - 0.0
05/10:00am 2.5 -8.5 0.9 89 0.6 WSW 48 67 26 36 - - 0.0
05/09:30am 1.5 -9.5 0.8 95 0.3 WSW 48 70 26 38 - - 0.0
05/09:00am 1.3 -9.4 0.1 92 0.5 WSW 46 74 25 40 - - 13.6
05/08:39am 1.8 -9.6 0.6 92 0.5 WSW 50 82 27 44 - - 13.6
05/08:35am 1.8 -10.9 0.6 92 0.5 WSW 57 87 31 47 - - 13.6
05/08:30am 1.6 -12.4 -0.3 87 0.7 SW 63 87 34 47 - - 13.6
05/08:00am 1.4 -10.5 -0.2 89 0.6 SW 52 76 28 41 - - 13.6
05/07:30am 0.8 -9.3 0.4 97 0.2 WSW 43 69 23 37 - - 13.4
05/07:00am 1.0 -10.8 0.4 96 0.2 SW 52 72 28 39 - - 13.4
05/06:30am 1.2 -9.0 0.9 98 0.1 WSW 44 67 24 36 - - 13.4
05/06:05am 1.2 -7.6 1.1 99 0.0 SW 37 56 20 30 - - 13.2
05/06:00am 1.0 -8.3 0.9 99 0.0 SW 39 54 21 29 - - 13.2
05/05:34am 0.8 -8.5 0.7 99 0.0 WSW 39 57 21 31 - - 12.8
05/05:30am 0.9 -8.0 0.8 99 0.0 WSW 37 54 20 29 - - 12.8
05/05:00am 1.1 -8.1 1.0 99 0.0 WSW 39 59 21 32 - - 12.6
05/04:31am 1.2 -9.7 1.1 99 0.0 SW 48 67 26 36 - - 12.4
05/04:30am 1.2 -10.1 1.1 99 0.0 SW 50 67 27 36 - - 12.4
05/04:00am 1.6 -8.3 1.5 99 0.0 WSW 43 65 23 35 - - 12.0
05/03:43am 1.8 -6.0 1.7 99 0.0 WSW 32 52 17 28 - - 11.8
05/03:30am 1.7 -6.7 1.6 99 0.0 WSW 35 46 19 25 - - 11.8
05/03:18am 1.3 -6.8 1.2 99 0.0 WSW 33 52 18 28 - - 11.6
05/03:00am 1.5 -8.1 1.4 99 0.0 WSW 41 54 22 29 - - 10.8
05/02:36am 2.2 -4.8 2.1 99 0.0 WSW 28 48 15 26 - - 9.4
05/02:30am 2.1 -4.9 2.0 99 0.0 WSW 28 37 15 20 - - 9.4
05/02:00am 2.3 -6.8 2.0 98 0.1 WSW 39 65 21 35 - - 9.0
05/01:55am 2.7 -5.0 2.4 98 0.1 WSW 32 57 17 31 - - 8.6
05/01:30am 3.2 -2.1 3.1 99 0.0 WSW 20 35 11 19 - - 7.8
05/01:20am 3.4 -3.0 3.3 99 0.0 W 26 39 14 21 - - 7.6
05/01:02am 3.4 -5.1 3.1 98 0.1 WSW 37 56 20 30 - - 7.2
05/01:00am 3.4 -5.1 3.1 98 0.1 WSW 37 48 20 26 - - 7.0
05/12:31am 3.9 -3.8 3.6 98 0.1 WSW 33 57 18 31 - - 5.6
05/12:30am 4.0 -3.5 3.7 98 0.1 WSW 32 48 17 26 - - 5.6
05/12:00am 4.3 -3.3 4.0 98 0.1 WNW 33 57 18 31 - - 4.6
 
Date/Time
EDT
Temp
°C
App
Temp
°C
Dew
Point
Rel
Hum
%
Delta-T
°C
Wind Press
QNH
hPa
Press
MSL
hPa
Rain
since 9 am
mm
Dir
 
Spd
km/h
Gust
km/h
Spd
kts
Gust
kts
04/11:57pm 4.5 -2.5 4.2 98 0.1 WNW 30 57 16 31 - - 4.4
04/11:30pm 5.0 -0.4 4.7 98 0.1 W 22 41 12 22 - - 2.8
04/11:00pm 5.2 -1.6 4.9 98 0.1 WNW 30 48 16 26 - - 2.0
04/10:30pm 5.4 -4.5 5.0 97 0.2 WNW 46 82 25 44 - - 1.2
04/10:00pm 6.0 -3.7 5.6 97 0.2 WNW 46 82 25 44 - - 0.8
04/09:30pm 6.2 -3.9 5.6 96 0.3 W 48 72 26 39 - - 0.4
04/09:00pm 6.3 -2.5 5.7 96 0.3 WNW 41 67 22 36 - - 0.4
04/08:30pm 6.6 -3.4 6.0 96 0.3 WNW 48 78 26 42 - - 0.2
04/08:00pm 6.8 -4.3 6.2 96 0.3 WNW 54 80 29 43 - - 0.0
04/07:30pm 7.3 -2.6 6.7 96 0.3 WNW 48 82 26 44 - - 0.0
04/07:00pm 7.7 -2.6 6.3 91 0.7 WNW 50 76 27 41 - - 0.0
04/06:30pm 8.4 -0.9 5.7 83 1.3 WNW 44 74 24 40 - - 0.0
04/06:00pm 8.8 -0.3 5.9 82 1.4 WNW 43 80 23 43 - - 0.0
04/05:57pm 8.8 -0.9 5.7 81 1.5 WNW 46 80 25 43 - - 0.0
04/05:56pm 8.9 -0.4 6.0 82 1.4 WNW 44 80 24 43 - - 0.0
04/05:30pm 8.0 -3.7 6.0 87 1.0 WNW 57 83 31 45 - - 0.0
04/05:00pm 7.4 -4.0 6.7 95 0.3 WNW 56 98 30 53 - - 0.0
04/04:53pm 7.5 -3.5 6.8 95 0.3 WNW 54 98 29 53 - - 0.0
04/04:30pm 8.0 -0.5 6.9 93 0.5 WNW 41 67 22 36 - - 0.0
04/04:00pm 8.7 -1.5 6.8 88 0.9 WNW 50 87 27 47 - - 0.0
04/03:30pm 11.0 1.0 7.7 80 1.7 WNW 50 85 27 46 - - 0.0
04/03:00pm 8.5 -1.8 6.5 87 1.0 WNW 50 82 27 44 - - 0.0
04/02:30pm 8.6 -1.6 6.9 89 0.8 WNW 50 83 27 45 - - 0.0
04/02:00pm 9.7 0.7 7.3 85 1.2 WNW 44 83 24 45 - - 0.0
04/01:30pm 8.1 -0.9 7.3 95 0.4 W 44 85 24 46 - - 0.0
04/01:16pm 8.4 -0.3 7.6 95 0.4 W 43 78 23 42 - - 0.0
04/01:05pm 8.7 0.0 7.9 95 0.4 WNW 43 89 23 48 - - 0.0
04/01:04pm 8.7 0.4 7.9 95 0.4 WNW 41 89 22 48 - - 0.0
04/01:00pm 8.7 0.8 7.8 94 0.4 W 39 89 21 48 - - 0.0
04/12:30pm 9.8 -0.6 7.9 88 1.0 WNW 52 91 28 49 - - 0.0
04/12:00pm 9.1 0.4 7.9 92 0.6 W 43 87 23 47 - - 0.0
04/11:30am 7.8 -1.0 7.1 95 0.3 W 43 80 23 43 - - 0.0
04/11:00am 8.1 0.1 7.5 96 0.3 W 39 70 21 38 - - 0.0
04/10:30am 8.7 2.0 8.1 96 0.3 W 33 61 18 33 - - 0.0
04/10:13am 8.8 -0.9 7.7 93 0.5 W 48 83 26 45 - - 0.0
04/10:00am 9.1 -2.1 7.5 90 0.8 WNW 56 89 30 48 - - 0.0
04/09:58am 9.0 -1.5 7.5 90 0.7 WNW 52 89 28 48 - - 0.0
04/09:30am 8.7 -0.2 6.7 87 1.0 WNW 43 74 23 40 - - 0.0
04/09:00am 8.4 -1.9 6.5 88 0.9 WNW 50 85 27 46 - - 0.0
04/08:30am 7.8 -1.1 6.7 93 0.5 WNW 43 72 23 39 - - 0.0
04/08:00am 7.7 0.3 6.6 93 0.5 WNW 35 83 19 45 - - 0.0
04/07:30am 7.4 -1.9 6.0 91 0.7 WNW 44 74 24 40 - - 0.0
04/07:00am 7.0 -2.9 6.6 97 0.2 WNW 48 85 26 46 - - 0.0
04/06:30am 6.9 -2.6 6.5 97 0.2 WNW 46 87 25 47 - - 0.0
04/06:26am 7.0 -4.0 6.6 97 0.2 WNW 54 87 29 47 - - 0.0
04/06:25am 6.9 -4.2 6.5 97 0.2 WNW 54 87 29 47 - - 0.0
04/06:12am 6.8 -2.8 6.4 97 0.2 WNW 46 85 25 46 - - 0.0
04/06:00am 6.7 -1.9 6.3 97 0.2 WNW 41 87 22 47 - - 0.0
04/05:45am 6.7 -2.3 6.3 97 0.2 WNW 43 95 23 51 - - 0.0
04/05:30am 6.5 -2.6 6.1 97 0.2 WNW 43 78 23 42 - - 0.0
04/05:25am 6.5 -3.5 6.1 97 0.2 WNW 48 87 26 47 - - 0.0
04/05:24am 6.5 -3.5 6.1 97 0.2 WNW 48 87 26 47 - - 0.0
04/05:18am 6.5 -3.1 6.1 97 0.2 WNW 46 87 25 47 - - 0.0
04/05:00am 6.4 -1.2 5.8 96 0.3 WNW 35 70 19 38 - - 0.0
04/04:30am 6.5 -0.8 5.3 92 0.6 WNW 33 57 18 31 - - 0.0
04/04:17am 6.7 0.7 5.2 90 0.7 WNW 26 54 14 29 - - 0.0
04/04:00am 6.6 0.1 4.9 89 0.8 WNW 28 41 15 22 - - 0.0
04/03:32am 6.5 0.4 4.7 88 0.8 W 26 50 14 27 - - 0.0
04/03:30am 6.5 0.0 4.7 88 0.8 WNW 28 59 15 32 - - 0.0
04/03:01am 6.5 -0.1 4.3 86 1.0 WNW 28 65 15 35 - - 0.0
04/03:00am 6.4 0.2 4.4 87 0.9 W 26 54 14 29 - - 0.0
04/02:30am 6.7 -2.4 4.0 83 1.2 WNW 41 61 22 33 - - 0.0
04/02:00am 6.7 -4.9 3.9 82 1.3 WNW 54 83 29 45 - - 0.0
04/01:30am 6.3 -4.1 4.0 85 1.0 W 48 69 26 37 - - 0.0
04/01:00am 6.1 -5.0 4.3 88 0.8 W 52 83 28 45 - - 0.0
04/12:55am 5.9 -3.5 4.4 90 0.7 WNW 43 74 23 40 - - 0.0
04/12:53am 5.8 -2.8 4.6 92 0.5 W 39 74 21 40 - - 0.0
04/12:51am 5.6 -1.9 4.7 94 0.4 W 33 57 18 31 - - 0.0
04/12:30am 5.7 -2.8 5.0 95 0.3 WNW 39 54 21 29 - - 0.0
04/12:00am 5.6 -3.9 4.9 95 0.3 W 44 63 24 34 - - 0.0
 
Date/Time
EDT
Temp
°C
App
Temp
°C
Dew
Point
Rel
Hum
%
Delta-T
°C
Wind Press
QNH
hPa
Press
MSL
hPa
Rain
since 9 am
mm
Dir
 
Spd
km/h
Gust
km/h
Spd
kts
Gust
kts
03/11:40pm 5.7 -2.5 4.7 93 0.5 WNW 37 56 20 30 - - 0.0
03/11:30pm 5.9 -3.5 4.2 89 0.8 WNW 43 56 23 30 - - 0.0
03/11:01pm 6.3 -1.8 3.5 82 1.2 WNW 35 54 19 29 - - 0.0
03/11:00pm 6.3 -1.4 3.3 81 1.3 WNW 33 50 18 27 - - 0.0
03/10:55pm 6.2 -1.9 3.4 82 1.2 WNW 35 54 19 29 - - 0.0
03/10:30pm 6.4 -1.7 3.4 81 1.3 WNW 35 50 19 27 - - 0.0
03/10:00pm 6.5 -1.6 3.3 80 1.4 WNW 35 56 19 30 - - 0.0
03/09:31pm 6.8 -0.7 3.2 78 1.6 WNW 32 50 17 27 - - 0.0
03/09:30pm 6.9 -0.6 3.2 77 1.6 WNW 32 46 17 25 - - 0.0
03/09:00pm 7.0 -1.6 2.7 74 1.9 WNW 37 59 20 32 - - 0.0
03/08:50pm 6.8 -1.4 2.9 76 1.7 WNW 35 54 19 29 - - 0.0
03/08:30pm 7.1 -1.4 3.0 75 1.8 WNW 37 52 20 28 - - 0.0
03/08:00pm 7.0 -0.3 2.3 72 2.0 NW 30 43 16 23 - - 0.0
03/07:43pm 7.1 -0.7 2.6 73 2.0 NW 33 52 18 28 - - 0.0
03/07:30pm 7.4 1.0 3.1 74 1.9 NW 26 37 14 20 - - 0.0
03/07:00pm 8.2 0.6 3.1 70 2.3 WNW 32 44 17 24 - - 0.0
03/06:34pm 8.9 1.2 3.5 69 2.5 NW 33 56 18 30 - - 0.0
03/06:30pm 8.7 1.2 3.7 71 2.3 NW 32 44 17 24 - - 0.0
03/06:19pm 9.0 2.3 3.6 69 2.5 NW 28 46 15 25 - - 0.0
03/06:00pm 9.4 2.3 3.6 67 2.7 WNW 30 39 16 21 - - 0.0
03/05:31pm 10.3 3.5 3.1 61 3.3 WNW 28 50 15 27 - - 0.0
03/05:30pm 10.4 3.6 3.2 61 3.3 WNW 28 41 15 22 - - 0.0
03/05:00pm 11.1 3.6 3.4 59 3.6 W 32 44 17 24 - - 0.0
03/04:36pm 11.9 4.4 3.7 57 3.8 W 32 50 17 27 - - 0.0
03/04:30pm 11.6 4.4 5.0 64 3.2 W 32 43 17 23 - - 0.0
03/04:00pm 10.6 3.4 3.2 60 3.4 W 30 41 16 22 - - 0.0
03/03:30pm 11.2 5.5 4.9 65 3.0 WNW 24 43 13 23 - - 0.0
03/03:00pm 10.5 3.5 4.0 64 3.0 W 30 41 16 22 - - 0.0
03/02:30pm 12.8 7.3 5.9 63 3.4 NW 24 37 13 20 - - 0.0
03/02:00pm 11.9 6.1 4.2 59 3.6 W 24 37 13 20 - - 0.0
03/01:30pm 11.2 4.6 4.2 62 3.3 WNW 28 39 15 21 - - 0.0
03/01:00pm 11.0 3.8 3.1 58 3.6 WNW 30 43 16 23 - - 0.0
03/12:30pm 10.7 5.5 5.5 70 2.5 WNW 22 35 12 19 - - 0.0
03/12:00pm 8.7 2.3 3.3 69 2.4 WNW 26 41 14 22 - - 0.0
03/11:30am 8.3 1.6 1.7 63 2.9 W 26 39 14 21 - - 0.0
03/11:00am 7.7 1.3 3.4 74 1.9 W 26 39 14 21 - - 0.0
03/10:30am 7.3 2.1 3.5 77 1.7 W 20 35 11 19 - - 0.0
03/10:00am 6.7 0.4 3.9 82 1.3 WNW 26 37 14 20 - - 0.0

Other Formats:

Comma delimited format used in spreadsheet applications
http://www.bom.gov.au/fwo/IDT60801/IDT60801.94977.axf

JavaScript Object Notation format (JSON) in row-major order
http://www.bom.gov.au/fwo/IDT60801/IDT60801.94977.json